createdAt,value
2023-04-18T00:00:29.272Z,15.68
2023-04-18T00:05:23.110Z,16.08
2023-04-18T00:07:49.687Z,15.55
2023-04-18T00:10:16.810Z,17.58
2023-04-18T00:12:43.331Z,17.98
2023-04-18T00:17:39.725Z,17.08
2023-04-18T00:20:10.663Z,18.45
2023-04-18T00:22:42.896Z,17.85
2023-04-18T00:25:10.432Z,15.20
2023-04-18T00:27:38.485Z,18.35
2023-04-18T00:30:06.749Z,17.52
2023-04-18T00:32:33.323Z,17.42
2023-04-18T00:34:59.973Z,17.25
2023-04-18T00:37:27.120Z,17.27
2023-04-18T00:39:54.031Z,18.98
2023-04-18T00:42:21.885Z,16.75
2023-04-18T00:44:48.934Z,17.50
2023-04-18T00:47:19.249Z,17.60
2023-04-18T00:49:47.945Z,18.48
2023-04-18T00:52:16.687Z,17.58
2023-04-18T00:54:44.710Z,17.70
2023-04-18T00:57:12.316Z,17.80
2023-04-18T00:59:39.213Z,17.25
2023-04-18T01:02:07.692Z,17.38
2023-04-18T01:04:34.346Z,17.77
2023-04-18T01:07:02.260Z,17.25
2023-04-18T01:09:29.366Z,16.92
2023-04-18T01:11:56.128Z,17.98
2023-04-18T01:14:22.782Z,16.30
2023-04-18T01:16:49.350Z,18.55
2023-04-18T01:19:17.754Z,16.70
2023-04-18T01:24:15.539Z,18.10
2023-04-18T01:26:44.074Z,19.55
2023-04-18T01:29:11.290Z,18.75
2023-04-18T01:31:38.650Z,17.80
2023-04-18T01:34:07.402Z,17.13
2023-04-18T01:36:34.898Z,17.25
2023-04-18T01:39:02.098Z,18.58
2023-04-18T01:41:32.292Z,18.42
2023-04-18T01:43:59.811Z,20.63
2023-04-18T01:46:26.730Z,20.48
2023-04-18T01:48:53.932Z,20.42
2023-04-18T01:51:21.464Z,18.48
2023-04-18T01:53:47.994Z,20.92
2023-04-18T01:58:41.699Z,19.52
2023-04-18T02:01:08.575Z,20.38
2023-04-18T02:03:35.448Z,21.10
2023-04-18T02:06:04.074Z,20.40
2023-04-18T02:08:32.916Z,22.70
2023-04-18T02:11:01.022Z,21.00
2023-04-18T02:13:28.074Z,20.55
2023-04-18T02:15:54.540Z,21.40
2023-04-18T02:20:48.839Z,19.20
2023-04-18T02:23:15.458Z,20.13
2023-04-18T02:25:41.921Z,21.10
2023-04-18T02:28:09.253Z,19.75
2023-04-18T02:30:35.779Z,22.70
2023-04-18T02:35:29.207Z,23.13
2023-04-18T02:37:55.790Z,21.95
2023-04-18T02:40:22.267Z,22.20
2023-04-18T02:45:15.414Z,22.52
2023-04-18T02:47:53.834Z,23.42
2023-04-18T02:50:21.743Z,25.38
2023-04-18T02:52:48.467Z,24.73
2023-04-18T02:55:16.917Z,25.77
2023-04-18T02:57:44.546Z,25.23
2023-04-18T03:00:43.310Z,27.50
2023-04-18T03:03:28.384Z,26.42
2023-04-18T03:06:14.922Z,26.67
2023-04-18T03:08:41.777Z,27.33
2023-04-18T03:11:08.812Z,27.60
2023-04-18T03:13:35.902Z,27.73
2023-04-18T03:16:03.115Z,25.92
2023-04-18T03:18:31.574Z,25.50
2023-04-18T03:20:59.132Z,25.83
2023-04-18T03:23:27.271Z,28.60
2023-04-18T03:28:20.450Z,28.98
2023-04-18T03:33:14.792Z,24.90
2023-04-18T03:35:41.821Z,27.65
2023-04-18T03:40:38.043Z,28.35
2023-04-18T03:43:11.669Z,27.45
2023-04-18T03:48:05.425Z,23.92
2023-04-18T03:50:35.508Z,24.63
2023-04-18T03:53:04.153Z,25.55
2023-04-18T03:55:33.788Z,25.38
2023-04-18T03:58:01.651Z,26.85
2023-04-18T04:00:29.414Z,25.08
2023-04-18T04:03:02.051Z,28.55
2023-04-18T04:05:28.919Z,25.98
2023-04-18T04:07:55.394Z,26.40
2023-04-18T04:10:23.103Z,28.60
2023-04-18T04:12:50.461Z,27.30
2023-04-18T04:15:17.807Z,26.70
2023-04-18T04:17:52.563Z,25.65
2023-04-18T04:20:24.171Z,27.90
2023-04-18T04:22:58.664Z,26.23
2023-04-18T04:25:28.632Z,27.67
2023-04-18T04:27:57.508Z,27.40
2023-04-18T04:30:24.119Z,27.40
2023-04-18T04:32:51.097Z,28.33
2023-04-18T04:35:17.894Z,28.95
2023-04-18T04:37:45.123Z,29.00
2023-04-18T04:40:20.694Z,32.10
2023-04-18T04:42:56.151Z,29.83
2023-04-18T04:45:29.250Z,28.48
2023-04-18T04:47:55.806Z,28.38
2023-04-18T04:50:22.755Z,30.33
2023-04-18T04:52:49.846Z,29.02
2023-04-18T04:55:17.464Z,25.60
2023-04-18T04:57:44.929Z,24.30
2023-04-18T05:00:32.816Z,26.25
2023-04-18T05:07:54.184Z,20.83
2023-04-18T05:10:21.621Z,22.30
2023-04-18T05:12:48.051Z,21.05
2023-04-18T05:15:16.195Z,19.40
2023-04-18T05:17:42.763Z,18.42
2023-04-18T05:22:36.665Z,19.10
2023-04-18T05:25:03.348Z,19.42
2023-04-18T05:27:29.812Z,18.88
2023-04-18T05:29:56.294Z,19.17
2023-04-18T05:34:49.319Z,18.23
2023-04-18T05:39:42.402Z,17.65
2023-04-18T05:42:08.855Z,18.48
2023-04-18T05:44:35.769Z,18.33
2023-04-18T05:47:02.317Z,17.27
2023-04-18T05:51:56.451Z,15.85
2023-04-18T05:54:25.020Z,17.65
2023-04-18T05:56:51.752Z,18.73
2023-04-18T05:59:18.215Z,19.05
2023-04-18T06:04:11.261Z,16.58
2023-04-18T06:06:38.140Z,16.58
2023-04-18T06:09:04.711Z,16.88
2023-04-18T06:14:00.132Z,15.73
2023-04-18T06:16:27.040Z,19.02
2023-04-18T06:18:53.549Z,15.98
2023-04-18T06:23:46.924Z,17.60
2023-04-18T06:28:39.928Z,17.15
2023-04-18T06:33:33.438Z,18.35
2023-04-18T06:35:59.910Z,18.40
2023-04-18T06:40:52.886Z,19.23
2023-04-18T06:45:45.877Z,18.48
2023-04-18T06:48:12.393Z,18.00
2023-04-18T06:50:38.961Z,21.60
2023-04-18T06:55:31.824Z,21.00
2023-04-18T07:00:26.912Z,21.35
2023-04-18T07:02:53.575Z,20.58
2023-04-18T07:05:20.150Z,19.08
2023-04-18T07:10:13.051Z,18.15
2023-04-18T07:15:06.414Z,17.60
2023-04-18T07:17:32.980Z,19.98
2023-04-18T07:22:26.275Z,19.47
2023-04-18T07:27:19.152Z,19.13
2023-04-18T07:32:12.200Z,18.65
2023-04-18T07:37:07.004Z,19.08
2023-04-18T07:39:35.975Z,18.77
2023-04-18T07:42:05.448Z,19.17
2023-04-18T07:44:31.978Z,20.27
2023-04-18T07:49:25.433Z,19.87
2023-04-18T07:51:51.945Z,19.35
2023-04-18T07:56:44.796Z,20.15
2023-04-18T07:59:11.451Z,20.83
2023-04-18T08:01:37.909Z,19.95
2023-04-18T08:06:31.406Z,21.13
2023-04-18T08:08:59.040Z,19.05
2023-04-18T08:11:25.566Z,18.80
2023-04-18T08:16:18.543Z,17.35
2023-04-18T08:21:11.522Z,17.45
2023-04-18T08:26:04.554Z,19.42
2023-04-18T08:30:57.528Z,17.77
2023-04-18T08:35:51.846Z,16.27
2023-04-18T08:38:19.084Z,14.43
2023-04-18T08:40:46.371Z,14.05
2023-04-18T08:43:15.001Z,14.40
2023-04-18T08:45:42.724Z,14.93
2023-04-18T08:48:16.701Z,13.88
2023-04-18T08:50:44.428Z,14.50
2023-04-18T08:53:11.298Z,14.48
2023-04-18T08:55:37.895Z,12.93
2023-04-18T09:00:33.553Z,13.57
2023-04-18T09:05:27.556Z,13.18
2023-04-18T09:10:30.922Z,13.07
2023-04-18T09:12:58.910Z,12.30
2023-04-18T09:15:29.642Z,12.32
2023-04-18T09:17:58.591Z,13.93
2023-04-18T09:20:30.696Z,14.45
2023-04-18T09:23:00.662Z,13.68
2023-04-18T09:25:30.479Z,15.15
2023-04-18T09:28:02.042Z,14.60
2023-04-18T09:30:32.008Z,14.70
2023-04-18T09:33:04.446Z,13.38
2023-04-18T09:35:31.525Z,14.00
2023-04-18T09:37:57.982Z,14.23
2023-04-18T09:40:24.602Z,13.07
2023-04-18T09:42:55.602Z,13.95
2023-04-18T09:45:23.489Z,14.95
2023-04-18T09:47:50.985Z,14.30
2023-04-18T09:50:18.386Z,15.15
2023-04-18T09:52:45.738Z,14.63
2023-04-18T09:55:17.555Z,14.27
2023-04-18T09:57:48.543Z,15.73
2023-04-18T10:00:21.534Z,14.48
2023-04-18T10:02:52.363Z,15.27
2023-04-18T10:05:21.426Z,14.57
2023-04-18T10:07:49.858Z,14.48
2023-04-18T10:10:17.191Z,15.23
2023-04-18T10:12:44.680Z,14.00
2023-04-18T10:15:11.945Z,15.55
2023-04-18T10:18:09.575Z,13.38
2023-04-18T10:20:36.713Z,13.27
2023-04-18T10:23:31.230Z,13.10
2023-04-18T10:25:58.626Z,12.73
2023-04-18T10:28:26.509Z,11.82
2023-04-18T10:31:04.083Z,11.23
2023-04-18T10:33:42.392Z,12.77
2023-04-18T10:36:09.182Z,11.77
2023-04-18T10:41:41.942Z,12.63
2023-04-18T10:44:08.856Z,11.40
2023-04-18T10:46:40.520Z,10.95
2023-04-18T10:49:25.166Z,11.00
2023-04-18T10:52:00.664Z,11.88
2023-04-18T10:54:54.299Z,11.20
2023-04-18T10:57:21.627Z,10.77
2023-04-18T10:59:50.339Z,11.25
2023-04-18T11:02:32.204Z,12.23
2023-04-18T11:05:01.466Z,10.98
2023-04-18T11:07:46.231Z,12.68
2023-04-18T11:10:16.163Z,11.38
2023-04-18T11:12:42.856Z,11.50
2023-04-18T11:17:40.004Z,10.57
2023-04-18T11:20:12.651Z,10.68
2023-04-18T11:22:48.324Z,11.85
2023-04-18T11:25:20.261Z,10.82
2023-04-18T11:27:48.699Z,10.85
2023-04-18T11:30:15.628Z,10.77
2023-04-18T11:32:42.380Z,11.18
2023-04-18T11:35:10.984Z,12.13
2023-04-18T11:37:39.502Z,12.05
2023-04-18T11:40:08.395Z,10.20
2023-04-18T11:42:37.065Z,9.70
2023-04-18T11:45:03.871Z,9.48
2023-04-18T11:47:32.968Z,11.00
2023-04-18T11:50:02.227Z,10.30
2023-04-18T11:52:31.006Z,9.90
2023-04-18T11:55:30.217Z,9.55
2023-04-18T11:57:58.504Z,11.77
2023-04-18T12:00:41.599Z,10.82
2023-04-18T12:03:15.726Z,11.25
2023-04-18T12:05:42.730Z,11.20
2023-04-18T12:08:11.858Z,9.95
2023-04-18T12:10:46.377Z,9.70
2023-04-18T12:13:13.193Z,10.07
2023-04-18T12:15:41.113Z,9.98
2023-04-18T12:18:10.678Z,9.50
2023-04-18T12:20:46.680Z,9.75
2023-04-18T12:23:34.242Z,10.40
2023-04-18T12:28:28.622Z,9.75
2023-04-18T12:30:55.836Z,9.30
2023-04-18T12:33:22.398Z,8.65
2023-04-18T12:38:21.155Z,8.88
2023-04-18T12:40:48.153Z,8.20
2023-04-18T12:43:14.757Z,8.65
2023-04-18T12:45:41.296Z,8.77
2023-04-18T12:50:34.502Z,7.80
2023-04-18T12:53:02.075Z,7.93
2023-04-18T12:55:29.179Z,8.18
2023-04-18T12:57:56.102Z,8.05
2023-04-18T13:00:23.896Z,8.63
2023-04-18T13:02:50.953Z,8.70
2023-04-18T13:05:19.901Z,8.02
2023-04-18T13:07:48.924Z,7.00
2023-04-18T13:10:20.413Z,8.15
2023-04-18T13:12:48.699Z,6.75
2023-04-18T13:15:16.131Z,6.60
2023-04-18T13:17:43.726Z,7.65
2023-04-18T13:20:12.362Z,7.93
2023-04-18T13:22:40.183Z,6.72
2023-04-18T13:25:08.206Z,7.78
2023-04-18T13:27:34.733Z,6.95
2023-04-18T13:32:27.977Z,6.82
2023-04-18T13:34:56.069Z,7.40
2023-04-18T13:37:23.130Z,6.85
2023-04-18T13:39:49.644Z,7.20
2023-04-18T13:44:42.941Z,7.87
2023-04-18T13:49:36.401Z,7.65
2023-04-18T13:52:04.263Z,8.50
2023-04-18T13:54:32.122Z,8.38
2023-04-18T13:57:03.039Z,7.50
2023-04-18T13:59:31.638Z,7.18
2023-04-18T14:01:58.290Z,7.60
2023-04-18T14:04:25.077Z,7.07
2023-04-18T14:06:51.737Z,6.25
2023-04-18T14:11:45.302Z,7.47
2023-04-18T14:14:11.808Z,7.15
2023-04-18T14:19:04.841Z,7.32
2023-04-18T14:21:31.540Z,7.45
2023-04-18T14:23:58.187Z,7.10
2023-04-18T14:26:24.756Z,6.50
2023-04-18T14:31:17.820Z,7.43
2023-04-18T14:36:11.329Z,7.03
2023-04-18T14:38:37.985Z,8.27
2023-04-18T14:41:05.608Z,7.60
2023-04-18T14:43:32.302Z,7.70
2023-04-18T14:45:59.695Z,8.13
2023-04-18T14:48:27.156Z,8.90
2023-04-18T14:50:58.035Z,9.30
2023-04-18T14:53:24.946Z,8.65
2023-04-18T14:55:51.475Z,10.30
2023-04-18T15:00:44.373Z,8.18
2023-04-18T15:05:42.819Z,8.52
2023-04-18T15:08:11.004Z,8.82
2023-04-18T15:10:38.472Z,8.63
2023-04-18T15:13:05.023Z,10.07
2023-04-18T15:18:02.447Z,8.32
2023-04-18T15:20:29.627Z,9.45
2023-04-18T15:22:56.898Z,10.18
2023-04-18T15:25:23.552Z,10.50
2023-04-18T15:27:50.125Z,9.32
2023-04-18T15:30:16.629Z,8.70
2023-04-18T15:32:44.102Z,7.93
2023-04-18T15:35:11.886Z,7.95
2023-04-18T15:37:38.400Z,7.55
2023-04-18T15:42:36.350Z,8.30
2023-04-18T15:45:04.316Z,7.55
2023-04-18T15:47:33.660Z,7.47
2023-04-18T15:50:00.574Z,9.35
2023-04-18T15:52:27.950Z,13.45
2023-04-18T15:57:21.733Z,11.50
2023-04-18T15:59:48.189Z,7.60
2023-04-18T16:02:14.986Z,7.13
2023-04-18T16:04:41.467Z,6.55
2023-04-18T16:09:35.255Z,6.90
2023-04-18T16:12:03.201Z,8.13
2023-04-18T16:14:31.183Z,7.18
2023-04-18T16:16:58.827Z,6.32
2023-04-18T16:19:25.352Z,7.82
2023-04-18T16:24:18.737Z,7.78
2023-04-18T16:26:45.251Z,6.68
2023-04-18T16:31:38.302Z,6.60
2023-04-18T16:34:04.846Z,7.53
2023-04-18T16:38:59.183Z,7.20
2023-04-18T16:41:25.658Z,7.40
2023-04-18T16:46:19.152Z,6.78
2023-04-18T16:48:45.754Z,6.82
2023-04-18T16:53:39.587Z,7.45
2023-04-18T16:56:08.112Z,6.82
2023-04-18T16:58:34.619Z,8.20
2023-04-18T17:01:01.891Z,7.28
2023-04-18T17:03:28.385Z,7.47
2023-04-18T17:08:22.185Z,8.32
2023-04-18T17:13:17.524Z,7.75
2023-04-18T17:18:10.623Z,7.95
2023-04-18T17:20:37.205Z,8.43
2023-04-18T17:25:30.128Z,7.75
2023-04-18T17:30:23.169Z,7.15
2023-04-18T17:32:50.464Z,8.98
2023-04-18T17:35:17.090Z,7.82
2023-04-18T17:37:43.557Z,8.18
2023-04-18T17:40:11.564Z,7.72
2023-04-18T17:42:38.359Z,10.02
2023-04-18T17:45:06.629Z,8.60
2023-04-18T17:47:34.060Z,8.77
2023-04-18T17:50:00.855Z,8.85
2023-04-18T17:52:30.554Z,9.55
2023-04-18T17:54:57.297Z,9.25
2023-04-18T17:57:25.943Z,9.85
2023-04-18T17:59:52.586Z,9.40
2023-04-18T18:02:19.543Z,10.25
2023-04-18T18:04:47.001Z,10.13
2023-04-18T18:07:13.574Z,10.27
2023-04-18T18:12:09.882Z,9.60
2023-04-18T18:14:36.527Z,9.63
2023-04-18T18:17:04.152Z,8.77
2023-04-18T18:19:30.757Z,9.38
2023-04-18T18:24:25.590Z,8.60
2023-04-18T18:26:52.233Z,9.18
2023-04-18T18:29:19.315Z,8.32
2023-04-18T18:31:45.981Z,9.55
2023-04-18T18:34:12.607Z,8.68
2023-04-18T18:39:06.949Z,9.27
2023-04-18T18:41:33.423Z,9.10
2023-04-18T18:43:59.934Z,9.57
2023-04-18T18:46:27.255Z,10.15
2023-04-18T18:48:53.778Z,9.82
2023-04-18T18:53:46.708Z,9.15
2023-04-18T18:58:40.396Z,8.65
2023-04-18T19:01:07.200Z,9.68
2023-04-18T19:03:34.776Z,10.15
2023-04-18T19:06:03.930Z,9.35
2023-04-18T19:08:30.956Z,9.98
2023-04-18T19:10:57.469Z,11.00
2023-04-18T19:15:51.148Z,10.45
2023-04-18T19:18:19.859Z,9.07
2023-04-18T19:20:46.924Z,10.30
2023-04-18T19:23:13.515Z,9.35
2023-04-18T19:25:40.100Z,9.45
2023-04-18T19:28:06.657Z,9.52
2023-04-18T19:32:59.605Z,10.20
2023-04-18T19:37:55.765Z,9.98
2023-04-18T19:40:23.694Z,10.90
2023-04-18T19:42:50.168Z,11.13
2023-04-18T19:45:16.676Z,10.90
2023-04-18T19:50:11.444Z,10.43
2023-04-18T19:52:37.901Z,9.70
2023-04-18T19:57:31.148Z,11.13
2023-04-18T19:59:57.571Z,11.75
2023-04-18T20:02:24.317Z,11.38
2023-04-18T20:04:51.169Z,13.15
2023-04-18T20:07:17.895Z,10.77
2023-04-18T20:12:10.814Z,12.20
2023-04-18T20:17:03.763Z,15.30
2023-04-18T20:19:30.202Z,14.02
2023-04-18T20:21:56.918Z,13.20
2023-04-18T20:24:23.782Z,11.80
2023-04-18T20:26:51.340Z,12.50
2023-04-18T20:29:17.852Z,12.57
2023-04-18T20:34:11.007Z,13.75
2023-04-18T20:36:41.461Z,13.18
2023-04-18T20:39:12.724Z,12.68
2023-04-18T20:41:49.099Z,12.15
2023-04-18T20:44:16.868Z,10.00
2023-04-18T20:46:43.386Z,12.50
2023-04-18T20:51:37.075Z,12.60
2023-04-18T20:54:04.538Z,13.38
2023-04-18T20:56:32.046Z,12.40
2023-04-18T20:58:58.517Z,13.43
2023-04-18T21:01:25.183Z,13.18
2023-04-18T21:03:51.746Z,13.02
2023-04-18T21:06:21.939Z,13.00
2023-04-18T21:08:48.806Z,12.75
2023-04-18T21:11:15.359Z,12.70
2023-04-18T21:16:10.220Z,13.80
2023-04-18T21:18:37.136Z,14.50
2023-04-18T21:21:04.256Z,14.32
2023-04-18T21:23:30.727Z,13.05
2023-04-18T21:28:23.590Z,14.45
2023-04-18T21:33:16.569Z,13.57
2023-04-18T21:35:43.023Z,14.50
2023-04-18T21:40:37.304Z,13.82
2023-04-18T21:43:03.813Z,13.80
2023-04-18T21:47:56.912Z,14.43
2023-04-18T21:52:49.941Z,12.90
2023-04-18T21:57:43.926Z,15.10
2023-04-18T22:17:32.350Z,16.80
2023-04-18T22:19:59.569Z,17.20
2023-04-18T22:22:26.118Z,16.95
2023-04-18T22:27:19.082Z,16.63
2023-04-18T22:32:12.009Z,17.00
2023-04-18T22:37:06.071Z,17.98
2023-04-18T22:39:32.550Z,17.10
2023-04-18T22:44:25.454Z,16.75
2023-04-18T22:49:22.193Z,17.75
2023-04-18T22:51:49.555Z,18.27
2023-04-18T22:54:16.203Z,15.52
2023-04-18T22:56:42.878Z,18.52
2023-04-18T23:01:36.004Z,16.88
2023-04-18T23:04:02.761Z,17.35
2023-04-18T23:06:29.984Z,15.95
2023-04-18T23:08:56.568Z,17.17
2023-04-18T23:11:23.099Z,16.52
2023-04-18T23:16:16.318Z,17.70
2023-04-18T23:18:42.795Z,15.73
2023-04-18T23:23:35.760Z,17.88
2023-04-18T23:28:28.773Z,19.55
2023-04-18T23:30:55.560Z,17.20
2023-04-18T23:33:22.349Z,17.15
2023-04-18T23:35:48.852Z,16.52
2023-04-18T23:40:41.893Z,17.10
2023-04-18T23:45:34.803Z,18.13
2023-04-18T23:50:28.961Z,17.00
2023-04-18T23:55:22.025Z,16.90
2023-04-18T23:57:48.643Z,17.30
